Stations météo

Publicité
Cap Gris Nez, France (7004): Température de l'air & dewpoint: 12.02.2020 08:00:00 - 18.02.2020 08:00:00 (CET)Cap Gris Nez, France (7004): Vitesse du vent & gusts: 12.02.2020 08:00:00 - 18.02.2020 08:00:00 (CET)Cap Gris Nez, France (7004): Direction du vent: 12.02.2020 08:00:00 - 18.02.2020 08:00:00 (CET)Cap Gris Nez, France (7004): Quantités de précipitations: 12.02.2020 08:00:00 - 18.02.2020 08:00:00 (CET)
Date & Time tt [°C] td [°C] ff [km/h] ff [knt] fx [km/h] fx [knt] dd rr [mm]
18.02.2020 08:00:00 7,9 3,2 57 31 78 42 WSW 0,0
18.02.2020 07:00:00 7,9 3,7 61 33 76 41 W -
18.02.2020 06:00:00 7,8 3,3 55 30 74 40 WSW 0,0
18.02.2020 05:00:00 7,7 3,5 55 30 76 41 W 0,0
18.02.2020 04:00:00 7,8 3,8 59 32 80 43 W 0,0
18.02.2020 03:00:00 7,9 3,7 57 31 80 43 WSW 0,0
18.02.2020 02:00:00 7,6 2,7 59 32 81 44 W 0,0
18.02.2020 01:00:00 7,7 3,5 61 33 81 44 W -
18.02.2020 00:00:00 7,7 3,7 68 37 89 48 W 0,0
17.02.2020 23:00:00 8,0 3,8 72 39 93 50 WSW 0,0
17.02.2020 22:00:00 8,5 5,2 63 34 85 46 WSW 0,0
17.02.2020 21:00:00 8,8 5,7 63 34 85 46 WSW 0,0
17.02.2020 20:00:00 8,9 6,0 67 36 100 54 WSW 0,0
17.02.2020 19:00:00 8,8 6,2 70 38 93 50 WSW -
17.02.2020 18:00:00 8,3 5,2 57 31 91 49 WSW 0,0
17.02.2020 17:00:00 8,9 6,5 70 38 93 50 WSW 0,0
17.02.2020 16:00:00 8,5 6,5 61 33 96 52 SW 0,0
17.02.2020 15:00:00 8,2 6,5 61 33 107 58 SW 3,0
17.02.2020 14:00:00 6,8 5,1 57 31 93 50 WSW 2,0
17.02.2020 13:00:00 8,6 5,3 57 31 85 46 SW -
17.02.2020 12:00:00 8,2 5,1 57 31 93 50 SW 0,6
17.02.2020 11:00:00 5,0 3,7 63 34 126 68 W 2,0
17.02.2020 10:00:00 8,8 6,2 54 29 81 44 SW 0,0
17.02.2020 09:00:00 8,5 6,1 57 31 80 43 SSW 0,0
17.02.2020 08:00:00 8,6 5,9 55 30 85 46 SW 0,0
17.02.2020 07:00:00 8,6 5,9 54 29 78 42 SW -
17.02.2020 06:00:00 8,7 5,6 55 30 81 44 SW 0,0
17.02.2020 05:00:00 8,8 5,4 55 30 81 44 SW 0,0
17.02.2020 04:00:00 7,9 4,3 67 36 94 51 SW 0,0
17.02.2020 03:00:00 8,8 4,0 61 33 100 54 WSW 0,0
17.02.2020 02:00:00 8,8 3,6 76 41 106 57 WSW 0,0
17.02.2020 01:00:00 8,6 1,7 83 45 120 65 WSW -
17.02.2020 00:00:00 9,0 4,0 76 41 113 61 WSW 0,2
16.02.2020 23:00:00 9,3 5,3 78 42 111 60 WSW 0,0
16.02.2020 22:00:00 9,4 5,9 70 38 94 51 WSW 0,0
16.02.2020 21:00:00 9,1 7,4 59 32 93 50 SW 0,0
16.02.2020 20:00:00 9,2 7,3 63 34 93 50 SW 0,0
16.02.2020 19:00:00 8,5 7,1 57 31 74 40 SW -
16.02.2020 18:00:00 7,8 6,6 48 26 78 42 SW 2,0
16.02.2020 17:00:00 7,9 7,1 59 32 81 44 W 1,0
16.02.2020 16:00:00 8,8 8,0 59 32 124 67 W 0,8
16.02.2020 15:00:00 12,6 10,3 85 46 120 65 SSW 0,0
16.02.2020 14:00:00 10,7 10,2 67 36 98 53 SSW 0,2
16.02.2020 13:00:00 10,7 10,7 70 38 100 54 SSW -
16.02.2020 12:00:00 10,5 10,2 65 35 89 48 S 0,4
16.02.2020 11:00:00 10,6 10,1 67 36 98 53 SSW 0,2
16.02.2020 10:00:00 11,6 10,0 70 38 106 57 SSW 0,2
16.02.2020 09:00:00 11,8 10,0 76 41 102 55 SSW 0,4
16.02.2020 08:00:00 11,3 10,0 70 38 106 57 SSW 0,0
16.02.2020 07:00:00 10,8 10,0 67 36 100 54 SSW -
16.02.2020 06:00:00 10,7 9,9 74 40 98 53 S 0,2
16.02.2020 05:00:00 10,5 9,7 70 38 96 52 SSW 0,8
16.02.2020 04:00:00 10,4 9,6 65 35 94 51 S 1,0
16.02.2020 03:00:00 10,4 9,6 61 33 93 50 S 1,0
16.02.2020 02:00:00 10,7 9,5 63 34 91 49 SSW 0,0
16.02.2020 01:00:00 11,0 9,1 65 35 94 51 SSW -
16.02.2020 00:00:00 10,8 8,9 65 35 93 50 SSW 0,0
15.02.2020 23:00:00 10,7 8,8 72 39 96 52 SSW 0,0
15.02.2020 22:00:00 10,7 8,8 72 39 109 59 SSW 0,0
15.02.2020 21:00:00 11,0 8,6 72 39 104 56 SSW 0,0
15.02.2020 20:00:00 11,0 8,0 68 37 102 55 S 0,0
15.02.2020 19:00:00 10,8 8,6 61 33 94 51 S -
15.02.2020 18:00:00 10,3 8,6 67 36 98 53 S 0,8
15.02.2020 17:00:00 10,9 7,9 61 33 83 45 S 0,0
15.02.2020 16:00:00 10,4 8,0 52 28 76 41 S 0,0
15.02.2020 15:00:00 10,4 8,0 55 30 78 42 S 0,0
15.02.2020 14:00:00 10,7 8,3 54 29 83 45 S 0,0
15.02.2020 13:00:00 10,5 8,3 52 28 78 42 S -
15.02.2020 12:00:00 10,3 8,4 48 26 70 38 S 0,0
15.02.2020 11:00:00 10,1 8,4 44 24 76 41 S 0,0
15.02.2020 10:00:00 10,1 8,2 46 25 70 38 S 0,0
15.02.2020 09:00:00 9,8 8,1 44 24 74 40 S 0,0
15.02.2020 08:00:00 9,5 7,8 42 23 65 35 S 0,0
15.02.2020 07:00:00 9,3 7,6 41 22 61 33 S -
15.02.2020 06:00:00 9,2 7,3 44 24 68 37 S 0,0
15.02.2020 05:00:00 9,0 7,1 39 21 63 34 S 0,0
15.02.2020 04:00:00 9,2 7,5 41 22 63 34 S 0,0
15.02.2020 03:00:00 9,0 7,1 44 24 61 33 SSW 0,0
15.02.2020 02:00:00 8,9 6,9 44 24 61 33 S 0,0
15.02.2020 01:00:00 9,0 7,0 41 22 59 32 SSW -
15.02.2020 00:00:00 9,3 6,4 41 22 63 34 S 0,0
14.02.2020 23:00:00 9,4 6,5 39 21 57 31 S 0,0
14.02.2020 22:00:00 9,4 6,7 37 20 61 33 S 0,0
14.02.2020 21:00:00 9,8 6,5 37 20 57 31 S 0,0
14.02.2020 20:00:00 9,2 7,0 39 21 55 30 S 0,0
14.02.2020 19:00:00 8,8 7,6 34 18 46 25 SSW -
14.02.2020 18:00:00 8,9 7,5 37 20 54 29 SW 0,0
14.02.2020 17:00:00 9,0 7,4 44 24 55 30 SW 0,0
14.02.2020 16:00:00 8,8 7,6 42 23 54 29 SSW 0,0
14.02.2020 15:00:00 9,1 6,7 41 22 52 28 SSW 0,0
14.02.2020 14:00:00 9,0 7,8 39 21 52 28 SSW 0,0
14.02.2020 13:00:00 9,2 7,3 34 18 46 25 SSW -
14.02.2020 12:00:00 8,3 5,2 34 18 46 25 SW 0,0
14.02.2020 11:00:00 8,0 5,5 21 11 29 16 S 0,0
14.02.2020 10:00:00 6,5 4,2 13 7 16 9 S 0,0
14.02.2020 09:00:00 6,8 4,1 9 5 13 7 SW 0,0
14.02.2020 08:00:00 6,6 3,4 9 5 21 11 W 0,0
14.02.2020 07:00:00 6,7 3,1 16 9 26 14 WNW -
14.02.2020 06:00:00 7,2 4,2 18 10 34 18 W 0,0
14.02.2020 05:00:00 7,2 3,6 22 12 34 18 WNW 0,0
14.02.2020 04:00:00 7,1 4,4 26 14 39 21 WNW 0,0
14.02.2020 03:00:00 7,2 4,3 31 17 46 25 W 0,0
14.02.2020 02:00:00 7,6 4,4 39 21 54 29 W 0,0
14.02.2020 01:00:00 8,0 5,1 39 21 55 30 W -
14.02.2020 00:00:00 8,3 5,0 39 21 54 29 W 0,0
13.02.2020 23:00:00 8,4 5,1 44 24 61 33 W 0,0
13.02.2020 22:00:00 8,2 5,1 50 27 63 34 W 0,0
13.02.2020 21:00:00 8,2 5,0 39 21 65 35 W 0,0
13.02.2020 20:00:00 8,4 5,3 48 26 67 36 W 0,0
13.02.2020 19:00:00 8,6 5,7 42 23 61 33 W -
13.02.2020 18:00:00 8,4 6,4 48 26 59 32 W 0,0
13.02.2020 17:00:00 7,9 5,5 41 22 72 39 WNW 0,0
13.02.2020 16:00:00 8,2 7,1 44 24 89 48 SW 0,0
13.02.2020 15:00:00 8,2 6,3 67 36 96 52 SSW 0,6
13.02.2020 14:00:00 7,7 6,6 44 24 89 48 SW 3,0
13.02.2020 13:00:00 8,4 5,7 63 34 96 52 SW -
13.02.2020 12:00:00 9,0 6,1 65 35 93 50 SW 0,0
13.02.2020 11:00:00 8,0 5,8 50 27 72 39 SW 0,0
13.02.2020 10:00:00 7,3 5,4 48 26 65 35 SW 0,0
13.02.2020 09:00:00 5,6 4,6 34 18 96 52 SSW 4,0
13.02.2020 08:00:00 6,9 5,5 54 29 91 49 S 2,0
13.02.2020 07:00:00 5,9 4,4 55 30 83 45 S -
13.02.2020 06:00:00 5,8 4,1 46 25 70 38 S 2,0
13.02.2020 05:00:00 6,3 4,5 48 26 83 45 S 1,0
13.02.2020 04:00:00 7,3 4,9 48 26 68 37 S 0,0
13.02.2020 03:00:00 7,0 5,1 41 22 59 32 S 0,0
13.02.2020 02:00:00 6,6 4,3 35 19 55 30 S 0,0
13.02.2020 01:00:00 6,6 3,9 39 21 55 30 S -
13.02.2020 00:00:00 6,4 4,2 34 18 46 25 S 0,4
12.02.2020 23:00:00 6,3 4,9 35 19 52 28 WSW 1,0
12.02.2020 22:00:00 7,5 5,5 39 21 67 36 SSW 0,4
12.02.2020 21:00:00 7,2 5,2 24 13 48 26 WSW 1,0
12.02.2020 20:00:00 7,2 3,2 34 18 52 28 SW 0,0
12.02.2020 19:00:00 7,8 2,5 46 25 67 36 WSW -
12.02.2020 18:00:00 7,7 3,2 52 28 61 33 WSW 0,0
12.02.2020 17:00:00 7,8 2,7 48 26 63 34 WSW 0,0
12.02.2020 16:00:00 7,8 2,7 52 28 70 38 WSW 0,0
12.02.2020 15:00:00 7,9 2,6 55 30 70 38 WSW 0,0
12.02.2020 14:00:00 7,5 2,2 50 27 67 36 WSW 0,0
12.02.2020 13:00:00 7,0 0,6 52 28 68 37 W -
12.02.2020 12:00:00 6,7 0,8 52 28 70 38 W 0,0
12.02.2020 11:00:00 6,4 2,1 55 30 70 38 W 0,0
12.02.2020 10:00:00 6,5 2,6 54 29 74 40 W 0,0
12.02.2020 09:00:00 6,5 1,6 59 32 76 41 W 0,0
12.02.2020 08:00:00 6,5 1,6 55 30 76 41 W 0,0

tt = Température de l'air
td = dewpoint
ff = Vitesse du vent
fx = gusts
dd = Direction du vent
rr = Quantités de précipitations

stations d'obs. à proximité